Time;durP1;ratioP1;P1;durP2;ratioP2;P2;SDS_P1;SDS_P2;PMS_P1;PMS_P2;Temp;Humidity;BMP_temperature;BMP_pressure;BME280_temperature;BME280_humidity;BME280_pressure;Samples;Min_cycle;Max_cycle;Signal;HPM_P1;HPM_P2
2023/09/12 00:00:51;;;;;;;3.65;3.35;;;23.00;1.00;;;;;;5024467;28;20211;-84
2023/09/12 00:03:22;;;;;;;4.43;3.80;;;23.10;1.00;;;;;;5024873;28;20214;-84
2023/09/12 00:05:53;;;;;;;5.63;4.07;;;23.10;1.00;;;;;;5057778;28;20191;-84
2023/09/12 00:08:20;;;;;;;5.10;3.33;;;23.10;99.90;;;;;;5046054;28;20220;-84
2023/09/12 00:10:48;;;;;;;4.75;3.20;;;23.20;93.60;;;;;;5026112;28;20603;-84
2023/09/12 00:13:15;;;;;;;4.47;3.72;;;23.10;1.00;;;;;;5016348;28;20199;-84
2023/09/12 00:15:43;;;;;;;4.20;3.85;;;23.20;25.20;;;;;;5058726;28;20554;-84
2023/09/12 00:18:10;;;;;;;4.88;4.35;;;23.20;1.00;;;;;;5022848;28;20284;-85
2023/09/12 00:20:39;;;;;;;4.78;4.38;;;23.10;99.90;;;;;;5054167;28;20191;-84
2023/09/12 00:23:06;;;;;;;4.85;3.90;;;23.10;1.00;;;;;;5029527;28;20202;-84
2023/09/12 00:25:34;;;;;;;5.35;4.13;;;23.20;1.00;;;;;;5024451;28;20209;-84
2023/09/12 00:28:01;;;;;;;4.35;3.95;;;22.90;1.00;;;;;;5025389;28;20218;-82
2023/09/12 00:30:29;;;;;;;4.25;3.88;;;22.80;1.00;;;;;;5031124;28;20198;-83
2023/09/12 00:32:56;;;;;;;4.80;4.22;;;22.80;99.90;;;;;;5049532;28;20202;-84
2023/09/12 00:35:23;;;;;;;7.38;3.97;;;22.90;1.00;;;;;;5054270;28;20664;-83
2023/09/12 00:37:53;;;;;;;5.18;4.50;;;22.50;99.90;;;;;;5031020;28;20218;-84
2023/09/12 00:40:21;;;;;;;4.63;4.22;;;22.30;1.00;;;;;;5026401;28;20202;-84
2023/09/12 00:42:48;;;;;;;4.78;4.32;;;22.30;99.90;;;;;;5038991;28;20193;-84
2023/09/12 00:45:16;;;;;;;6.93;4.57;;;22.10;1.00;;;;;;5038017;28;20213;-84
2023/09/12 00:47:44;;;;;;;5.32;4.38;;;22.10;99.90;;;;;;5032488;28;20222;-84
2023/09/12 00:50:11;;;;;;;5.05;4.30;;;22.00;99.90;;;;;;5034010;28;20195;-84
2023/09/12 00:52:40;;;;;;;4.82;4.43;;;22.00;1.00;;;;;;5059520;28;20218;-84
2023/09/12 00:55:09;;;;;;;5.35;4.85;;;22.30;1.00;;;;;;5038605;28;20205;-84
2023/09/12 00:57:37;;;;;;;5.85;4.80;;;22.20;1.00;;;;;;5032506;28;20226;-84
2023/09/12 01:00:11;;;;;;;6.03;5.10;;;22.20;1.00;;;;;;5033847;28;20203;-82
2023/09/12 01:02:38;;;;;;;6.15;5.55;;;22.10;1.00;;;;;;5042642;28;20195;-83
2023/09/12 01:05:08;;;;;;;6.80;5.75;;;22.00;99.90;;;;;;5035672;28;20217;-84
2023/09/12 01:07:36;;;;;;;7.53;6.82;;;22.00;1.00;;;;;;5041781;28;20244;-83
2023/09/12 01:10:04;;;;;;;7.30;6.60;;;22.20;99.90;;;;;;5040475;28;20206;-84
2023/09/12 01:12:33;;;;;;;8.82;7.53;;;22.40;99.90;;;;;;5033197;28;20226;-84
2023/09/12 01:15:01;;;;;;;8.20;6.57;;;22.10;99.90;;;;;;5030090;28;20199;-81
2023/09/12 01:17:28;;;;;;;9.95;7.13;;;21.90;99.90;;;;;;5041867;28;20191;-84
2023/09/12 01:19:56;;;;;;;8.27;7.47;;;22.10;1.00;;;;;;5037291;28;20194;-84
2023/09/12 01:22:41;;;;;;;9.10;8.20;;;22.10;99.90;;;;;;5049204;28;20191;-84
2023/09/12 01:25:35;;;;;;;10.50;8.77;;;21.90;65.40;;;;;;5045895;28;20207;-83
2023/09/12 01:28:10;;;;;;;10.48;8.55;;;22.00;99.90;;;;;;5026939;28;20218;-84
2023/09/12 01:30:40;;;;;;;8.50;7.65;;;22.00;1.00;;;;;;5031399;28;20202;-84
2023/09/12 01:33:07;;;;;;;9.63;8.23;;;22.00;1.00;;;;;;5036917;28;20214;-84
2023/09/12 01:35:35;;;;;;;11.02;8.95;;;22.10;1.00;;;;;;5036219;28;20203;-84
2023/09/12 01:38:03;;;;;;;12.55;9.23;;;22.30;1.00;;;;;;5058416;28;20325;-84
2023/09/12 01:40:38;;;;;;;13.05;11.77;;;22.20;48.90;;;;;;5026946;28;20209;-84
2023/09/12 01:43:08;;;;;;;12.13;10.93;;;22.20;1.00;;;;;;5049581;28;20198;-84
2023/09/12 01:45:37;;;;;;;12.25;10.25;;;22.30;99.90;;;;;;5036356;28;20201;-84
2023/09/12 01:48:06;;;;;;;13.23;11.05;;;22.40;99.90;;;;;;5037248;28;20218;-84
2023/09/12 01:50:34;;;;;;;13.40;11.32;;;22.40;99.90;;;;;;5027696;28;20199;-84
2023/09/12 01:53:02;;;;;;;14.75;11.57;;;22.40;99.90;;;;;;5032282;28;20218;-83
2023/09/12 01:55:30;;;;;;;12.95;11.55;;;22.30;99.90;;;;;;5024907;28;20202;-84
2023/09/12 01:57:58;;;;;;;12.73;11.43;;;22.30;99.90;;;;;;5028817;28;20218;-84
2023/09/12 02:00:27;;;;;;;14.25;12.10;;;22.40;1.00;;;;;;5027943;28;20199;-84
2023/09/12 02:02:55;;;;;;;12.77;11.35;;;22.40;1.00;;;;;;5038550;28;20202;-84
2023/09/12 02:05:23;;;;;;;14.02;12.07;;;22.30;1.00;;;;;;5033821;28;20190;-84
2023/09/12 02:07:51;;;;;;;12.90;11.40;;;22.20;94.70;;;;;;5036420;28;20256;-84
2023/09/12 02:10:19;;;;;;;14.88;11.90;;;22.30;99.90;;;;;;5054016;28;20217;-84
2023/09/12 02:12:46;;;;;;;14.57;12.27;;;22.40;99.90;;;;;;5051863;28;20672;-84
2023/09/12 02:15:14;;;;;;;15.40;12.30;;;22.30;1.00;;;;;;5048036;28;20199;-84
2023/09/12 02:17:43;;;;;;;15.40;12.27;;;22.20;99.90;;;;;;5047205;28;20222;-84
2023/09/12 02:20:11;;;;;;;12.48;11.15;;;22.20;99.90;;;;;;5045319;28;20201;-84
2023/09/12 02:22:39;;;;;;;12.60;11.23;;;22.30;99.90;;;;;;5050426;28;20202;-84
2023/09/12 02:25:08;;;;;;;12.57;11.27;;;22.40;99.90;;;;;;5038497;28;20210;-84
2023/09/12 02:27:36;;;;;;;13.70;12.27;;;22.60;1.00;;;;;;5079090;28;20226;-84
2023/09/12 02:30:07;;;;;;;12.52;11.23;;;22.30;49.60;;;;;;5043045;28;20201;-81
2023/09/12 02:32:34;;;;;;;15.15;13.32;;;22.40;1.00;;;;;;5050004;28;20214;-84
2023/09/12 02:35:04;;;;;;;13.70;11.57;;;22.30;99.90;;;;;;5073442;28;20563;-84
2023/09/12 02:37:31;;;;;;;13.30;11.23;;;22.30;99.90;;;;;;5046955;28;20825;-84
2023/09/12 02:39:59;;;;;;;14.23;12.68;;;22.40;1.00;;;;;;5048412;28;20210;-84
2023/09/12 02:42:26;;;;;;;14.50;12.00;;;22.20;1.00;;;;;;5046242;28;20237;-84
2023/09/12 02:44:54;;;;;;;14.52;11.73;;;22.00;1.00;;;;;;5047432;28;20209;-84
2023/09/12 02:47:21;;;;;;;13.95;11.32;;;21.70;22.30;;;;;;5049760;28;20205;-84
2023/09/12 02:49:49;;;;;;;13.15;11.85;;;21.80;1.00;;;;;;5045616;28;20194;-84
2023/09/12 02:52:18;;;;;;;12.80;11.35;;;21.80;1.00;;;;;;5083268;28;20221;-84
2023/09/12 02:54:45;;;;;;;14.15;12.52;;;21.90;1.00;;;;;;5041325;28;20202;-84
2023/09/12 02:57:13;;;;;;;14.15;12.50;;;21.90;99.90;;;;;;5051106;28;20214;-84
2023/09/12 02:59:40;;;;;;;13.23;11.90;;;21.90;99.90;;;;;;5040209;28;20790;-84
2023/09/12 03:02:08;;;;;;;14.07;12.50;;;22.00;99.90;;;;;;5063879;28;20202;-84
2023/09/12 03:04:36;;;;;;;14.13;12.63;;;21.80;1.00;;;;;;5040861;28;20202;-84
2023/09/12 03:07:04;;;;;;;13.93;12.52;;;21.80;1.00;;;;;;5062527;28;20202;-84
2023/09/12 03:09:33;;;;;;;15.35;13.25;;;21.80;1.00;;;;;;5071353;28;20226;-84
2023/09/12 03:12:02;;;;;;;14.70;12.90;;;21.90;99.90;;;;;;5040721;28;20213;-83
2023/09/12 03:14:30;;;;;;;14.95;13.45;;;21.90;99.90;;;;;;5046990;28;20535;-84
2023/09/12 03:16:57;;;;;;;16.88;14.23;;;22.00;99.90;;;;;;5045506;28;20186;-84
2023/09/12 03:19:25;;;;;;;15.32;13.48;;;22.10;93.10;;;;;;5047895;28;20576;-84
2023/09/12 03:21:52;;;;;;;14.90;13.38;;;22.10;99.90;;;;;;5044535;23;20229;-79
2023/09/12 03:24:21;;;;;;;13.95;12.45;;;22.20;1.00;;;;;;5055101;28;20209;-79
2023/09/12 03:26:50;;;;;;;15.02;13.52;;;22.20;1.00;;;;;;5038044;28;20213;-79
2023/09/12 03:29:18;;;;;;;14.52;13.02;;;22.10;1.00;;;;;;5037913;28;20205;-79
2023/09/12 03:31:45;;;;;;;15.27;12.05;;;22.20;1.00;;;;;;5051067;28;20217;-79
2023/09/12 03:34:13;;;;;;;16.27;14.02;;;22.20;1.00;;;;;;5069095;28;20221;-79
2023/09/12 03:36:40;;;;;;;13.00;11.43;;;22.20;18.90;;;;;;5046544;28;20202;-79
2023/09/12 03:39:08;;;;;;;13.57;11.93;;;22.10;99.90;;;;;;5068564;28;20193;-79
2023/09/12 03:41:36;;;;;;;12.77;11.50;;;22.20;99.90;;;;;;5049056;28;20568;-79
2023/09/12 03:44:06;;;;;;;16.42;12.98;;;22.00;99.90;;;;;;5070710;28;20196;-79
2023/09/12 03:46:33;;;;;;;14.80;13.15;;;21.80;1.00;;;;;;5065015;28;20198;-79
2023/09/12 03:49:01;;;;;;;14.80;13.23;;;21.30;99.90;;;;;;5049381;28;20198;-79
2023/09/12 03:51:29;;;;;;;13.65;12.05;;;21.30;99.90;;;;;;5051455;28;20222;-79
2023/09/12 03:53:56;;;;;;;17.15;12.90;;;21.50;99.90;;;;;;5048591;28;20209;-79
2023/09/12 03:56:24;;;;;;;18.20;13.55;;;21.70;31.70;;;;;;5050865;28;20202;-79
2023/09/12 03:58:51;;;;;;;15.30;13.43;;;21.70;1.00;;;;;;5053455;28;20203;-79
2023/09/12 04:01:20;;;;;;;18.05;14.05;;;21.70;1.00;;;;;;5046315;28;20228;-79
2023/09/12 04:03:47;;;;;;;15.98;14.27;;;21.80;99.90;;;;;;5056687;28;20206;-79
2023/09/12 04:06:15;;;;;;;14.73;13.05;;;21.60;99.90;;;;;;5056090;28;20198;-79
2023/09/12 04:08:42;;;;;;;16.75;13.80;;;21.50;99.90;;;;;;5058593;28;20197;-79
2023/09/12 04:11:10;;;;;;;15.65;13.73;;;21.30;99.90;;;;;;5055341;28;20236;-79
2023/09/12 04:13:38;;;;;;;15.13;13.55;;;21.30;99.90;;;;;;5053170;28;20214;-79
2023/09/12 04:16:07;;;;;;;17.02;15.23;;;21.50;99.90;;;;;;5055198;28;20216;-79
2023/09/12 04:18:36;;;;;;;15.63;14.02;;;21.50;99.90;;;;;;5067829;28;20190;-79
2023/09/12 04:21:04;;;;;;;15.02;13.38;;;21.60;99.90;;;;;;5057462;28;20585;-79
2023/09/12 04:23:32;;;;;;;17.33;15.40;;;21.70;99.90;;;;;;5055122;28;20198;-79
2023/09/12 04:26:03;;;;;;;14.50;13.00;;;21.70;99.90;;;;;;5038323;28;20194;-79
2023/09/12 04:28:30;;;;;;;15.77;14.18;;;21.60;71.80;;;;;;5054351;28;20202;-79
2023/09/12 04:31:04;;;;;;;16.90;13.90;;;21.60;83.10;;;;;;5046503;28;20722;-79
2023/09/12 04:33:32;;;;;;;18.48;15.63;;;21.50;99.90;;;;;;5071129;28;20220;-79
2023/09/12 04:36:02;;;;;;;18.33;14.70;;;21.50;99.90;;;;;;5071216;28;20198;-79
2023/09/12 04:38:30;;;;;;;18.08;15.27;;;21.50;99.90;;;;;;5056550;28;20202;-79
2023/09/12 04:40:57;;;;;;;19.13;15.40;;;21.40;1.00;;;;;;5057426;28;20228;-79
2023/09/12 04:43:25;;;;;;;17.08;14.32;;;21.30;1.00;;;;;;5052125;28;20538;-79
2023/09/12 04:45:52;;;;;;;15.38;13.82;;;21.30;1.00;;;;;;5064538;28;20197;-79
2023/09/12 04:48:20;;;;;;;18.60;15.43;;;21.40;99.90;;;;;;5049100;28;20205;-79
2023/09/12 04:50:48;;;;;;;18.50;15.57;;;21.20;49.70;;;;;;5053528;28;20240;-79
2023/09/12 04:53:17;;;;;;;16.50;14.73;;;21.20;49.00;;;;;;5057094;28;20224;-79
2023/09/12 04:55:44;;;;;;;16.83;14.32;;;21.10;51.40;;;;;;5046961;28;20201;-78
2023/09/12 04:58:12;;;;;;;15.13;13.50;;;21.30;4.30;;;;;;5054964;28;20201;-78
2023/09/12 05:00:40;;;;;;;15.52;13.65;;;21.40;99.20;;;;;;5049162;28;20377;-79
2023/09/12 05:03:08;;;;;;;16.02;14.25;;;21.40;40.00;;;;;;5054795;28;20582;-78
2023/09/12 05:05:36;;;;;;;16.85;13.85;;;21.30;41.70;;;;;;5057794;28;20652;-79
2023/09/12 05:08:04;;;;;;;15.27;13.27;;;21.30;31.00;;;;;;5051685;28;20213;-77
2023/09/12 05:10:33;;;;;;;15.25;13.63;;;21.40;99.90;;;;;;5044564;28;20606;-77
2023/09/12 05:13:01;;;;;;;17.13;13.30;;;21.40;1.00;;;;;;5063936;28;20197;-77
2023/09/12 05:15:29;;;;;;;15.23;12.65;;;21.40;1.00;;;;;;5044990;28;20723;-77
2023/09/12 05:17:56;;;;;;;16.13;12.65;;;21.40;1.00;;;;;;5050860;28;20203;-78
2023/09/12 05:20:23;;;;;;;15.50;12.02;;;21.40;1.00;;;;;;5053324;28;20240;-77
2023/09/12 05:22:51;;;;;;;14.43;12.90;;;21.40;1.00;;;;;;5057197;28;20208;-78
2023/09/12 05:25:18;;;;;;;17.75;13.05;;;21.40;1.00;;;;;;5043022;28;20206;-78
2023/09/12 05:27:50;;;;;;;13.95;12.27;;;21.40;1.00;;;;;;5043049;28;20195;-77
2023/09/12 05:30:18;;;;;;;14.50;13.02;;;21.40;11.40;;;;;;5053284;28;20233;-77
2023/09/12 05:32:47;;;;;;;13.60;12.10;;;21.40;1.00;;;;;;5037052;28;20213;-78
2023/09/12 05:35:15;;;;;;;13.10;11.75;;;21.40;74.60;;;;;;5056243;28;20225;-77
2023/09/12 05:37:43;;;;;;;15.27;12.10;;;21.30;17.30;;;;;;5045537;28;20209;-78
2023/09/12 05:40:11;;;;;;;14.25;12.75;;;21.20;50.30;;;;;;5036444;28;20694;-78
2023/09/12 05:42:38;;;;;;;13.23;11.65;;;21.30;20.40;;;;;;5062211;28;20202;-78
2023/09/12 05:45:08;;;;;;;12.60;11.02;;;21.30;1.00;;;;;;5053022;28;20194;-78
2023/09/12 05:47:36;;;;;;;15.35;11.50;;;21.40;1.00;;;;;;5036874;28;20217;-77
2023/09/12 05:50:06;;;;;;;12.45;11.18;;;21.40;1.00;;;;;;5041194;28;20194;-79
2023/09/12 05:52:34;;;;;;;15.85;11.00;;;21.50;99.90;;;;;;5049325;28;20202;-79
2023/09/12 05:55:04;;;;;;;15.43;11.57;;;21.50;86.90;;;;;;5043181;28;20210;-79
2023/09/12 05:57:33;;;;;;;12.65;9.70;;;21.30;1.00;;;;;;5058198;28;20198;-79
2023/09/12 06:00:00;;;;;;;16.38;13.57;;;21.50;1.00;;;;;;5066046;28;20194;-79
2023/09/12 06:02:30;;;;;;;13.82;12.38;;;21.60;1.00;;;;;;5043679;28;20209;-79
2023/09/12 06:04:57;;;;;;;13.98;12.45;;;21.30;99.90;;;;;;5043218;28;20194;-79
2023/09/12 06:07:25;;;;;;;14.00;11.98;;;21.20;99.90;;;;;;5055438;28;20202;-78
2023/09/12 06:09:52;;;;;;;14.07;12.05;;;21.20;99.90;;;;;;5046579;28;20204;-79
2023/09/12 06:12:20;;;;;;;15.90;12.90;;;21.30;99.90;;;;;;5057958;28;20213;-78
2023/09/12 06:14:47;;;;;;;14.60;12.95;;;21.30;99.90;;;;;;5071943;28;20240;-79
2023/09/12 06:17:14;;;;;;;14.10;12.52;;;21.30;99.90;;;;;;5044407;28;20203;-79
2023/09/12 06:19:43;;;;;;;15.35;13.18;;;21.40;99.90;;;;;;5069072;28;20208;-79
2023/09/12 06:22:10;;;;;;;14.32;12.32;;;21.20;99.90;;;;;;5061075;28;20240;-79
2023/09/12 06:24:39;;;;;;;15.93;12.27;;;21.20;99.90;;;;;;5065921;28;20301;-79
2023/09/12 06:27:06;;;;;;;14.05;12.50;;;21.50;99.90;;;;;;5056072;28;20651;-78
2023/09/12 06:29:32;;;;;;;15.63;12.77;;;21.50;99.90;;;;;;5058884;28;20209;-79
2023/09/12 06:32:02;;;;;;;18.17;13.60;;;21.50;99.90;;;;;;5073834;28;20701;-79
2023/09/12 06:34:29;;;;;;;15.57;13.68;;;21.20;99.90;;;;;;5066473;28;20232;-78
2023/09/12 06:36:58;;;;;;;16.40;14.30;;;21.30;99.90;;;;;;5040865;28;20202;-79
2023/09/12 06:39:26;;;;;;;16.00;13.40;;;21.50;99.90;;;;;;5042605;28;20203;-79
2023/09/12 06:41:53;;;;;;;18.80;15.13;;;21.60;99.90;;;;;;5060801;28;20225;-79
2023/09/12 06:44:21;;;;;;;21.45;15.45;;;21.20;99.90;;;;;;5044113;28;20194;-78
2023/09/12 06:46:48;;;;;;;20.08;15.65;;;20.90;99.90;;;;;;5057454;28;20191;-78
2023/09/12 06:49:15;;;;;;;19.65;17.20;;;20.90;99.90;;;;;;5058783;28;20201;-78
2023/09/12 06:51:43;;;;;;;18.52;16.15;;;20.80;99.90;;;;;;5077041;28;20240;-78
2023/09/12 06:54:12;;;;;;;16.58;14.70;;;20.80;99.90;;;;;;5057904;28;20213;-78
2023/09/12 06:56:42;;;;;;;17.48;13.95;;;20.60;99.90;;;;;;5041320;28;20204;-78
2023/09/12 06:59:10;;;;;;;17.27;13.68;;;20.60;99.90;;;;;;5059670;28;20200;-78
2023/09/12 07:01:38;;;;;;;12.25;10.88;;;20.70;99.90;;;;;;5054129;28;20226;-78
2023/09/12 07:04:06;;;;;;;12.68;11.02;;;20.60;99.90;;;;;;5041519;28;20220;-79
2023/09/12 07:06:33;;;;;;;10.07;8.50;;;20.80;99.90;;;;;;5045899;28;21190;-78
2023/09/12 07:09:02;;;;;;;10.48;9.40;;;20.90;99.90;;;;;;5065604;28;20202;-77
2023/09/12 07:11:31;;;;;;;10.10;8.30;;;20.90;99.90;;;;;;5045602;28;20217;-77
2023/09/12 07:13:59;;;;;;;11.40;9.32;;;21.00;99.90;;;;;;5050227;28;20202;-78
2023/09/12 07:16:27;;;;;;;11.20;9.40;;;20.90;99.90;;;;;;5061051;28;20205;-77
2023/09/12 07:18:54;;;;;;;11.40;9.43;;;21.00;99.90;;;;;;5048796;28;20566;-77
2023/09/12 07:21:22;;;;;;;9.50;8.50;;;21.00;99.90;;;;;;5065036;28;20235;-77
2023/09/12 07:23:49;;;;;;;12.23;9.20;;;21.00;99.90;;;;;;5059613;28;20205;-77
2023/09/12 07:26:17;;;;;;;11.85;8.90;;;21.20;99.90;;;;;;5063628;28;20198;-76
2023/09/12 07:28:46;;;;;;;9.98;8.13;;;21.30;99.90;;;;;;5061513;28;20201;-77
2023/09/12 07:31:13;;;;;;;8.48;6.93;;;21.60;99.90;;;;;;5047909;28;20232;-77
2023/09/12 07:33:41;;;;;;;7.10;5.05;;;21.30;99.90;;;;;;5056831;28;20202;-77
2023/09/12 07:36:08;;;;;;;8.52;5.78;;;21.00;99.90;;;;;;5045586;28;20229;-77
2023/09/12 07:38:37;;;;;;;6.32;4.85;;;21.40;99.90;;;;;;5048342;28;20198;-78
2023/09/12 07:41:04;;;;;;;5.68;4.80;;;21.70;99.90;;;;;;5050862;28;20237;-80
2023/09/12 07:43:32;;;;;;;5.50;3.67;;;21.20;99.90;;;;;;5052141;28;20198;-80
2023/09/12 07:46:00;;;;;;;6.40;4.18;;;21.00;99.90;;;;;;5042930;28;20198;-80
2023/09/12 07:48:28;;;;;;;5.28;4.05;;;20.90;99.90;;;;;;5047299;28;20207;-81
2023/09/12 07:50:55;;;;;;;5.13;4.38;;;20.80;99.90;;;;;;5041026;28;20225;-80
2023/09/12 07:53:23;;;;;;;4.95;4.07;;;20.70;99.90;;;;;;5046986;28;20209;-80
2023/09/12 07:55:50;;;;;;;7.38;4.50;;;21.00;99.90;;;;;;5066064;28;20226;-80
2023/09/12 07:58:19;;;;;;;6.28;4.03;;;20.90;99.90;;;;;;5047094;28;20225;-80
2023/09/12 08:00:47;;;;;;;4.40;4.00;;;20.80;99.90;;;;;;5046883;28;20222;-80
2023/09/12 08:03:16;;;;;;;5.10;4.25;;;20.90;99.90;;;;;;5062573;28;20667;-80
2023/09/12 08:05:43;;;;;;;5.22;3.70;;;21.10;99.90;;;;;;5070472;28;20202;-80
2023/09/12 08:08:11;;;;;;;5.40;4.20;;;21.20;99.90;;;;;;5049164;28;20209;-80
2023/09/12 08:10:38;;;;;;;4.97;3.75;;;21.30;99.90;;;;;;5047510;28;20240;-80
2023/09/12 08:13:05;;;;;;;4.28;3.28;;;21.50;99.90;;;;;;5040875;28;20203;-80
2023/09/12 08:15:33;;;;;;;3.60;3.30;;;21.60;99.90;;;;;;5044845;28;20566;-80
2023/09/12 08:18:00;;;;;;;4.13;3.42;;;21.50;99.90;;;;;;5047723;28;20289;-80
2023/09/12 08:20:29;;;;;;;3.25;2.92;;;21.50;99.90;;;;;;5040879;28;20221;-80
2023/09/12 08:22:57;;;;;;;3.42;2.97;;;21.80;99.90;;;;;;5063242;28;20209;-81
2023/09/12 08:25:24;;;;;;;4.97;3.08;;;21.90;99.90;;;;;;5068303;28;20205;-80
2023/09/12 08:27:52;;;;;;;4.15;3.70;;;21.80;99.90;;;;;;5047806;28;20200;-81
2023/09/12 08:30:19;;;;;;;4.85;3.50;;;21.70;99.90;;;;;;5052033;28;20222;-81
2023/09/12 08:32:46;;;;;;;5.72;4.05;;;21.90;99.90;;;;;;5065917;28;20193;-81
2023/09/12 08:35:18;;;;;;;4.88;3.60;;;21.80;99.90;;;;;;5050906;28;20209;-81
2023/09/12 08:37:47;;;;;;;4.45;3.47;;;21.80;99.90;;;;;;5046278;28;20212;-80
2023/09/12 08:40:15;;;;;;;4.15;3.75;;;22.00;99.90;;;;;;5067924;28;20228;-81
2023/09/12 08:42:44;;;;;;;4.20;3.80;;;21.80;99.90;;;;;;5047320;28;20194;-81
2023/09/12 08:45:14;;;;;;;6.82;4.60;;;22.00;99.90;;;;;;5053015;28;20193;-80
2023/09/12 08:47:43;;;;;;;5.55;5.05;;;21.70;99.90;;;;;;5050819;28;20209;-80
2023/09/12 08:50:13;;;;;;;7.13;5.75;;;21.50;99.90;;;;;;5056180;28;20567;-81
2023/09/12 08:52:42;;;;;;;7.13;6.40;;;21.70;99.90;;;;;;5046423;28;20210;-80
2023/09/12 08:55:11;;;;;;;6.60;5.88;;;21.90;99.90;;;;;;5066656;28;20229;-81
2023/09/12 08:57:41;;;;;;;8.18;7.38;;;22.00;99.90;;;;;;5047322;28;20208;-80
2023/09/12 09:00:12;;;;;;;9.20;7.43;;;22.10;99.90;;;;;;5063067;28;20205;-80
2023/09/12 09:02:41;;;;;;;7.30;6.63;;;22.00;99.90;;;;;;5061424;28;20228;-82
2023/09/12 09:05:11;;;;;;;8.43;7.68;;;22.50;99.90;;;;;;5045262;28;20210;-78
2023/09/12 09:07:40;;;;;;;8.32;7.53;;;22.60;99.90;;;;;;5056616;28;20213;-78
2023/09/12 09:10:14;;;;;;;8.25;7.15;;;22.80;99.90;;;;;;5045425;28;20194;-78
2023/09/12 09:12:43;;;;;;;10.48;9.07;;;23.10;99.90;;;;;;5041196;28;20682;-78
2023/09/12 09:15:25;;;;;;;9.00;7.57;;;23.10;99.90;;;;;;5045797;28;20221;-79
2023/09/12 09:17:54;;;;;;;9.38;7.20;;;23.00;99.90;;;;;;5037294;28;20209;-79
2023/09/12 09:20:27;;;;;;;9.10;8.23;;;23.10;99.90;;;;;;5043178;28;20225;-79
2023/09/12 09:23:05;;;;;;;9.80;8.82;;;23.00;99.90;;;;;;5060703;28;20204;-79
2023/09/12 09:25:36;;;;;;;7.38;6.68;;;23.00;99.90;;;;;;5046566;28;20201;-79
2023/09/12 09:28:16;;;;;;;8.95;8.05;;;23.10;99.90;;;;;;5041850;28;20198;-79
2023/09/12 09:30:45;;;;;;;8.80;7.90;;;23.20;99.90;;;;;;5066426;28;20214;-79
2023/09/12 09:33:13;;;;;;;8.73;7.82;;;23.40;99.90;;;;;;5044861;28;20206;-79
2023/09/12 09:35:42;;;;;;;9.82;8.93;;;23.20;99.90;;;;;;5062958;28;20579;-79
2023/09/12 09:38:16;;;;;;;8.57;7.82;;;23.60;99.90;;;;;;5069174;28;20197;-79
2023/09/12 09:40:45;;;;;;;7.95;6.95;;;23.60;99.90;;;;;;5050598;28;20225;-79
2023/09/12 09:43:14;;;;;;;8.50;6.75;;;23.50;1.00;;;;;;5067495;23;20245;-76
2023/09/12 09:45:47;;;;;;;7.18;6.55;;;23.80;1.00;;;;;;5010457;28;20200;-77
2023/09/12 09:48:21;;;;;;;8.73;7.35;;;23.60;99.90;;;;;;5024963;28;20206;-76
2023/09/12 09:51:00;;;;;;;7.75;7.03;;;23.50;99.90;;;;;;5033232;28;20198;-76
2023/09/12 09:54:03;;;;;;;;;;;;;;;;;;;;;
2023/09/12 09:57:33;;;;;;;;;;;;;;;;;;;;;
2023/09/12 10:00:24;;;;;;;7.10;6.40;;;23.50;1.00;;;;;;4969506;28;20209;-76
2023/09/12 10:02:53;;;;;;;7.57;6.63;;;23.20;1.00;;;;;;4968377;28;20200;-76
2023/09/12 10:05:22;;;;;;;6.88;6.13;;;23.30;1.00;;;;;;4994163;28;20659;-76
2023/09/12 10:07:51;;;;;;;6.63;5.57;;;23.70;99.90;;;;;;5042024;28;20203;-76
2023/09/12 10:10:19;;;;;;;7.72;6.38;;;23.90;99.90;;;;;;5065892;28;20189;-76
2023/09/12 10:12:51;;;;;;;7.35;6.60;;;23.90;99.90;;;;;;5051962;28;20209;-76
2023/09/12 10:15:24;;;;;;;7.80;6.78;;;23.50;99.90;;;;;;5029937;28;20198;-76
2023/09/12 10:17:57;;;;;;;7.15;6.32;;;23.40;83.00;;;;;;5055036;28;20199;-76
2023/09/12 10:20:29;;;;;;;6.35;5.75;;;23.50;99.90;;;;;;5051008;28;20647;-76
2023/09/12 10:23:08;;;;;;;7.03;6.30;;;23.80;1.00;;;;;;5055937;28;20187;-77
2023/09/12 10:25:37;;;;;;;6.55;5.82;;;23.70;1.00;;;;;;5053695;28;20209;-77
2023/09/12 10:28:06;;;;;;;7.10;5.57;;;23.60;1.00;;;;;;5031340;28;20198;-76
2023/09/12 10:30:35;;;;;;;5.88;5.10;;;23.90;99.90;;;;;;5059488;28;20206;-76
2023/09/12 10:33:04;;;;;;;5.20;4.80;;;24.20;1.00;;;;;;5050151;28;20225;-77
2023/09/12 10:35:33;;;;;;;5.97;4.88;;;24.10;1.00;;;;;;5029303;28;20222;-77
2023/09/12 10:38:03;;;;;;;5.22;4.72;;;24.50;90.00;;;;;;5040042;28;20205;-76
2023/09/12 10:40:32;;;;;;;6.00;4.70;;;24.10;1.00;;;;;;5028525;28;20202;-77
2023/09/12 10:43:03;;;;;;;5.90;5.15;;;24.10;1.00;;;;;;5040099;28;20714;-76
2023/09/12 10:45:32;;;;;;;4.65;4.25;;;24.10;1.00;;;;;;5034156;28;20198;-77
2023/09/12 10:48:01;;;;;;;6.32;5.47;;;24.40;1.00;;;;;;5040956;28;20199;-77
2023/09/12 10:50:29;;;;;;;4.93;4.47;;;24.60;99.90;;;;;;5047580;28;20668;-77
2023/09/12 10:53:08;;;;;;;4.95;4.50;;;24.50;99.90;;;;;;5030632;28;20201;-77
2023/09/12 10:55:36;;;;;;;5.25;4.85;;;24.60;62.00;;;;;;5024775;28;20198;-77
2023/09/12 10:58:04;;;;;;;5.53;4.88;;;24.70;1.00;;;;;;5029766;28;20233;-77
2023/09/12 11:00:32;;;;;;;5.30;4.80;;;24.80;99.90;;;;;;5034662;28;20198;-75
2023/09/12 11:03:37;;;;;;;13.32;8.63;;;25.10;1.00;;;;;;5040789;28;20233;-77
2023/09/12 11:06:05;;;;;;;16.33;10.95;;;25.10;1.00;;;;;;5026475;28;20191;-77
2023/09/12 11:08:37;;;;;;;16.17;9.10;;;25.40;1.00;;;;;;5036907;28;20235;-76
2023/09/12 11:11:21;;;;;;;5.57;5.07;;;25.50;99.90;;;;;;5025588;28;20207;-77
2023/09/12 11:14:04;;;;;;;8.05;5.30;;;25.50;15.80;;;;;;5029948;28;20222;-76
2023/09/12 11:16:31;;;;;;;11.30;6.63;;;25.70;1.00;;;;;;5043309;28;20209;-76
2023/09/12 11:19:19;;;;;;;6.47;4.63;;;25.80;99.90;;;;;;5008994;28;20200;-76
2023/09/12 11:21:48;;;;;;;5.53;4.93;;;26.20;99.90;;;;;;5020271;28;20210;-76
2023/09/12 11:24:17;;;;;;;4.72;4.03;;;26.20;1.00;;;;;;5042608;28;20225;-76
2023/09/12 11:26:55;;;;;;;4.38;3.67;;;26.20;1.00;;;;;;5039854;28;20188;-76
2023/09/12 11:29:23;;;;;;;4.60;4.20;;;26.00;99.90;;;;;;5058703;28;20692;-76
2023/09/12 11:31:57;;;;;;;4.38;3.90;;;26.00;1.00;;;;;;5040650;28;20202;-76
2023/09/12 11:34:28;;;;;;;3.85;3.55;;;26.10;45.00;;;;;;5033751;28;20220;-76
2023/09/12 11:37:00;;;;;;;5.13;3.92;;;26.30;1.00;;;;;;5032964;28;20222;-76
2023/09/12 11:39:30;;;;;;;4.75;4.30;;;26.30;1.00;;;;;;5050178;28;20565;-75
2023/09/12 11:41:58;;;;;;;4.75;3.85;;;26.30;1.00;;;;;;5023963;28;20207;-75
2023/09/12 11:44:45;;;;;;;4.35;3.95;;;26.40;1.00;;;;;;5032944;28;20237;-75
2023/09/12 11:47:13;;;;;;;6.40;4.22;;;26.00;1.00;;;;;;5055645;28;20196;-75
2023/09/12 11:49:43;;;;;;;3.92;3.50;;;26.20;1.00;;;;;;5036248;28;20199;-76
2023/09/12 11:52:12;;;;;;;4.47;4.07;;;26.30;1.00;;;;;;5044247;28;20206;-76
2023/09/12 11:54:40;;;;;;;4.63;4.15;;;26.40;1.00;;;;;;5029715;28;20222;-76
2023/09/12 11:57:09;;;;;;;4.47;4.13;;;26.20;99.90;;;;;;5049716;28;20214;-76
2023/09/12 11:59:40;;;;;;;5.85;4.88;;;26.30;99.90;;;;;;5044337;28;20656;-75
2023/09/12 12:02:08;;;;;;;23.63;8.68;;;26.30;1.00;;;;;;5057469;28;20185;-79
2023/09/12 12:04:36;;;;;;;77.25;22.30;;;26.40;99.90;;;;;;5046115;28;20221;-76
2023/09/12 12:07:06;;;;;;;5.07;4.43;;;26.60;99.90;;;;;;5053648;28;20198;-76
2023/09/12 12:09:34;;;;;;;18.83;9.25;;;27.00;99.90;;;;;;5041762;28;20205;-76
2023/09/12 12:12:12;;;;;;;4.80;4.07;;;27.00;5.30;;;;;;5042765;28;20209;-75
2023/09/12 12:14:41;;;;;;;6.20;5.60;;;26.60;99.90;;;;;;5031911;28;20221;-77
2023/09/12 12:17:09;;;;;;;6.03;5.07;;;26.30;99.90;;;;;;5046179;28;20696;-76
2023/09/12 12:19:37;;;;;;;4.82;4.20;;;26.80;99.90;;;;;;5049845;28;20667;-78
2023/09/12 12:22:09;;;;;;;8.75;5.32;;;27.00;99.90;;;;;;5030350;28;20195;-76
2023/09/12 12:25:06;;;;;;;6.03;4.95;;;27.50;99.90;;;;;;5047264;28;20214;-77
2023/09/12 12:27:35;;;;;;;4.90;4.13;;;27.30;99.90;;;;;;5032753;28;20212;-76
2023/09/12 12:30:09;;;;;;;5.05;3.95;;;27.10;57.40;;;;;;5042844;28;20562;-76
2023/09/12 12:32:40;;;;;;;4.97;3.97;;;27.40;99.90;;;;;;5026030;28;20194;-76
2023/09/12 12:35:08;;;;;;;4.97;4.25;;;27.80;1.00;;;;;;5040709;28;20213;-77
2023/09/12 12:37:38;;;;;;;6.03;5.25;;;27.90;99.90;;;;;;5050209;28;20206;-76
2023/09/12 12:40:06;;;;;;;7.25;4.93;;;28.20;1.00;;;;;;5032406;28;20195;-77
2023/09/12 12:42:41;;;;;;;5.03;4.53;;;28.00;1.00;;;;;;5029538;28;20199;-77
2023/09/12 12:45:13;;;;;;;6.13;5.18;;;28.50;50.20;;;;;;5018741;28;20198;-77
2023/09/12 12:47:59;;;;;;;4.95;4.50;;;27.90;1.00;;;;;;5038738;28;20194;-77
2023/09/12 12:50:27;;;;;;;5.60;5.10;;;28.00;1.00;;;;;;5042632;28;20218;-77
2023/09/12 12:52:55;;;;;;;6.88;6.00;;;28.30;1.00;;;;;;5024954;28;20199;-77
2023/09/12 12:55:26;;;;;;;7.28;5.70;;;28.10;99.90;;;;;;5037990;28;20199;-76